createdAt,value
2022-12-23T00:01:24.372Z,36.90
2022-12-23T00:03:51.764Z,38.08
2022-12-23T00:06:20.085Z,36.20
2022-12-23T00:08:46.799Z,36.65
2022-12-23T00:11:18.789Z,36.40
2022-12-23T00:16:30.478Z,36.80
2022-12-23T00:18:57.042Z,38.20
2022-12-23T00:21:23.634Z,41.13
2022-12-23T00:23:51.387Z,36.28
2022-12-23T00:26:23.664Z,41.17
2022-12-23T00:28:50.554Z,37.50
2022-12-23T00:31:21.387Z,38.35
2022-12-23T00:33:49.379Z,38.23
2022-12-23T00:36:24.426Z,43.17
2022-12-23T00:39:09.631Z,39.45
2022-12-23T00:41:54.978Z,43.88
2022-12-23T00:44:21.516Z,36.65
2022-12-23T00:46:48.401Z,36.25
2022-12-23T00:49:35.605Z,39.00
2022-12-23T00:52:02.835Z,37.50
2022-12-23T00:54:29.696Z,34.58
2022-12-23T00:56:56.164Z,33.47
2022-12-23T00:59:22.631Z,33.92
2022-12-23T01:02:08.233Z,35.70
2022-12-23T01:04:53.943Z,33.88
2022-12-23T01:07:21.241Z,37.17
2022-12-23T01:09:47.834Z,34.45
2022-12-23T01:12:14.310Z,37.75
2022-12-23T01:14:41.204Z,36.60
2022-12-23T01:17:08.579Z,37.72
2022-12-23T01:19:35.668Z,32.55
2022-12-23T01:22:02.578Z,40.63
2022-12-23T01:24:30.989Z,34.70
2022-12-23T01:26:58.121Z,34.33
2022-12-23T01:29:25.323Z,38.28
2022-12-23T01:31:52.020Z,39.05
2022-12-23T01:34:18.957Z,37.47
2022-12-23T01:36:45.491Z,38.88
2022-12-23T01:39:12.052Z,35.30
2022-12-23T01:41:57.194Z,35.42
2022-12-23T01:45:25.156Z,36.03
2022-12-23T01:48:02.493Z,37.22
2022-12-23T01:50:35.004Z,35.25
2022-12-23T01:53:24.409Z,36.67
2022-12-23T01:56:07.977Z,37.50
2022-12-23T01:58:42.433Z,41.83
2022-12-23T02:01:28.942Z,38.95
2022-12-23T02:04:02.589Z,37.63
2022-12-23T02:06:59.500Z,36.70
2022-12-23T02:09:32.488Z,39.33
2022-12-23T02:12:32.128Z,36.10
2022-12-23T02:15:41.760Z,36.25
2022-12-23T02:18:27.849Z,36.38
2022-12-23T02:21:13.122Z,37.70
2022-12-23T02:24:17.153Z,38.28
2022-12-23T02:27:18.956Z,37.33
2022-12-23T02:30:20.506Z,32.97
2022-12-23T02:33:13.051Z,33.83
2022-12-23T02:36:20.114Z,30.30
2022-12-23T02:39:10.662Z,29.92
2022-12-23T02:42:02.244Z,34.80
2022-12-23T02:44:35.387Z,32.10
2022-12-23T02:47:10.206Z,31.05
2022-12-23T02:49:41.471Z,31.73
2022-12-23T02:52:13.962Z,30.27
2022-12-23T02:54:50.216Z,27.45
2022-12-23T02:57:22.854Z,24.02
2022-12-23T02:59:51.491Z,29.33
2022-12-23T03:02:18.753Z,28.00
2022-12-23T03:04:45.606Z,29.63
2022-12-23T03:07:30.292Z,27.13
2022-12-23T03:10:16.047Z,26.02
2022-12-23T03:13:14.648Z,26.55
2022-12-23T03:15:56.474Z,28.67
2022-12-23T03:18:36.361Z,30.13
2022-12-23T03:21:25.130Z,27.27
2022-12-23T03:23:56.224Z,30.70
2022-12-23T03:26:40.929Z,31.15
2022-12-23T03:29:22.486Z,29.65
2022-12-23T03:31:51.708Z,32.15
2022-12-23T03:34:24.063Z,32.67
2022-12-23T03:36:55.658Z,32.35
2022-12-23T03:39:28.431Z,36.17
2022-12-23T03:42:01.808Z,32.35
2022-12-23T03:44:32.761Z,33.90
2022-12-23T03:47:06.323Z,32.30
2022-12-23T03:49:37.995Z,30.60
2022-12-23T03:52:21.724Z,35.13
2022-12-23T03:54:53.599Z,29.98
2022-12-23T03:57:25.983Z,32.63
2022-12-23T03:59:53.346Z,26.67
2022-12-23T04:02:32.695Z,30.73
2022-12-23T04:05:25.170Z,32.85
2022-12-23T04:08:13.492Z,29.35
2022-12-23T04:10:40.870Z,30.33
2022-12-23T04:13:08.053Z,30.80
2022-12-23T04:15:40.267Z,31.15
2022-12-23T04:18:07.730Z,30.90
2022-12-23T04:20:34.275Z,31.17
2022-12-23T04:23:00.786Z,33.45
2022-12-23T04:25:27.315Z,32.00
2022-12-23T04:27:53.855Z,34.38
2022-12-23T04:30:20.477Z,33.45
2022-12-23T04:32:47.058Z,35.10
2022-12-23T04:35:13.620Z,35.38
2022-12-23T04:37:40.143Z,32.38
2022-12-23T04:40:07.600Z,37.70
2022-12-23T04:42:34.355Z,34.92
2022-12-23T04:45:00.894Z,35.38
2022-12-23T04:47:27.548Z,35.67
2022-12-23T04:49:54.132Z,36.40
2022-12-23T04:52:20.694Z,35.13
2022-12-23T04:54:47.236Z,35.75
2022-12-23T04:57:15.080Z,36.90
2022-12-23T04:59:41.619Z,35.65
2022-12-23T05:02:08.350Z,32.58
2022-12-23T05:04:35.220Z,39.10
2022-12-23T05:07:01.833Z,37.80
2022-12-23T05:09:28.324Z,38.90
2022-12-23T05:11:54.897Z,36.28
2022-12-23T05:14:21.435Z,40.35
2022-12-23T05:16:48.055Z,39.28
2022-12-23T05:19:14.745Z,37.50
2022-12-23T05:21:41.289Z,37.70
2022-12-23T05:24:07.885Z,42.45
2022-12-23T05:26:34.377Z,43.95
2022-12-23T05:29:00.906Z,41.75
2022-12-23T05:31:27.462Z,43.25
2022-12-23T05:33:54.018Z,42.67
2022-12-23T05:36:20.573Z,41.55
2022-12-23T05:38:47.873Z,39.92
2022-12-23T05:41:16.221Z,42.05
2022-12-23T05:43:43.113Z,41.28
2022-12-23T05:46:09.638Z,43.15
2022-12-23T05:48:36.194Z,36.45
2022-12-23T05:51:02.710Z,39.13
2022-12-23T05:53:29.246Z,39.10
2022-12-23T05:55:55.839Z,39.67
2022-12-23T05:58:22.427Z,39.72
2022-12-23T06:00:48.987Z,45.10
2022-12-23T06:03:16.474Z,37.28
2022-12-23T06:05:43.943Z,41.75
2022-12-23T06:08:10.488Z,40.70
2022-12-23T06:10:37.001Z,41.15
2022-12-23T06:13:03.637Z,39.55
2022-12-23T06:15:30.182Z,38.58
2022-12-23T06:17:56.742Z,46.03
2022-12-23T06:20:23.225Z,45.15
2022-12-23T06:22:49.751Z,42.20
2022-12-23T06:25:16.434Z,45.40
2022-12-23T06:27:43.041Z,39.15
2022-12-23T06:30:10.192Z,41.67
2022-12-23T06:32:38.885Z,38.63
2022-12-23T06:35:06.903Z,42.42
2022-12-23T06:37:33.690Z,39.60
2022-12-23T06:40:00.311Z,39.30
2022-12-23T06:42:26.799Z,36.50
2022-12-23T06:44:53.268Z,39.53
2022-12-23T06:47:19.831Z,34.72
2022-12-23T06:49:46.344Z,33.15
2022-12-23T06:52:12.875Z,36.72
2022-12-23T06:54:39.377Z,33.85
2022-12-23T06:57:05.933Z,34.22
2022-12-23T06:59:32.486Z,30.88
2022-12-23T07:01:59.271Z,30.55
2022-12-23T07:04:25.958Z,29.33
2022-12-23T07:06:52.452Z,30.40
2022-12-23T07:09:18.982Z,34.13
2022-12-23T07:11:45.903Z,35.40
2022-12-23T07:14:12.376Z,36.13
2022-12-23T07:16:39.025Z,37.35
2022-12-23T07:19:05.634Z,41.38
2022-12-23T07:21:32.237Z,41.08
2022-12-23T07:23:58.830Z,43.90
2022-12-23T07:26:25.407Z,39.70
2022-12-23T07:28:51.935Z,44.55
2022-12-23T07:31:18.453Z,44.15
2022-12-23T07:33:45.001Z,43.13
2022-12-23T07:36:11.519Z,47.38
2022-12-23T07:38:38.004Z,41.40
2022-12-23T07:41:04.672Z,49.65
2022-12-23T07:43:31.231Z,42.55
2022-12-23T07:46:00.746Z,46.92
2022-12-23T07:48:27.911Z,49.72
2022-12-23T07:51:00.616Z,51.25
2022-12-23T07:53:27.576Z,53.90
2022-12-23T07:55:56.578Z,50.17
2022-12-23T07:58:23.287Z,50.97
2022-12-23T08:00:49.993Z,50.28
2022-12-23T08:03:16.561Z,50.28
2022-12-23T08:05:43.187Z,50.97
2022-12-23T08:08:09.717Z,50.53
2022-12-23T08:10:36.196Z,53.00
2022-12-23T08:13:02.665Z,61.08
2022-12-23T08:15:29.172Z,60.22
2022-12-23T08:17:56.327Z,63.47
2022-12-23T08:20:22.908Z,60.13
2022-12-23T08:22:49.519Z,66.05
2022-12-23T08:25:16.113Z,64.10
2022-12-23T08:27:42.639Z,66.20
2022-12-23T08:30:09.763Z,70.97
2022-12-23T08:32:36.262Z,68.35
2022-12-23T08:35:02.780Z,66.95
2022-12-23T08:37:29.501Z,68.97
2022-12-23T08:39:56.011Z,68.70
2022-12-23T08:42:22.607Z,70.28
2022-12-23T08:44:49.145Z,72.45
2022-12-23T08:47:15.715Z,69.32
2022-12-23T08:49:42.219Z,73.25
2022-12-23T08:52:08.764Z,67.35
2022-12-23T08:54:35.333Z,71.57
2022-12-23T08:57:01.933Z,68.57
2022-12-23T08:59:28.695Z,62.72
2022-12-23T09:01:55.367Z,67.32
2022-12-23T09:04:22.015Z,63.22
2022-12-23T09:06:48.504Z,62.50
2022-12-23T09:09:16.059Z,64.53
2022-12-23T09:11:43.065Z,60.35
2022-12-23T09:14:11.116Z,58.72
2022-12-23T09:16:38.428Z,51.78
2022-12-23T09:19:05.102Z,53.97
2022-12-23T09:21:31.642Z,55.47
2022-12-23T09:23:58.231Z,50.88
2022-12-23T09:26:27.622Z,48.33
2022-12-23T09:28:54.688Z,47.58
2022-12-23T09:31:22.755Z,44.78
2022-12-23T09:33:53.082Z,46.42
2022-12-23T09:36:20.772Z,44.45
2022-12-23T09:38:47.401Z,40.35
2022-12-23T09:41:46.220Z,43.42
2022-12-23T09:44:34.096Z,40.00
2022-12-23T09:47:07.888Z,38.20
2022-12-23T09:49:34.565Z,38.78
2022-12-23T09:52:05.004Z,35.92
2022-12-23T09:54:43.203Z,35.58
2022-12-23T09:57:23.737Z,39.03
2022-12-23T10:00:00.256Z,34.33
2022-12-23T10:02:40.115Z,33.60
2022-12-23T10:05:31.429Z,40.45
2022-12-23T10:08:03.390Z,34.60
2022-12-23T10:10:53.997Z,31.40
2022-12-23T10:13:38.045Z,33.80
2022-12-23T10:16:09.690Z,35.22
2022-12-23T10:19:01.069Z,31.90
2022-12-23T10:21:45.371Z,28.47
2022-12-23T10:24:23.057Z,29.42
2022-12-23T10:27:00.614Z,26.45
2022-12-23T10:29:31.509Z,29.45
2022-12-23T10:32:36.592Z,26.50
2022-12-23T10:35:30.417Z,27.50
2022-12-23T10:38:21.373Z,25.80
2022-12-23T10:41:09.457Z,28.63
2022-12-23T10:44:05.736Z,26.40
2022-12-23T10:47:04.644Z,27.45
2022-12-23T10:49:49.569Z,27.73
2022-12-23T10:52:20.295Z,30.48
2022-12-23T10:54:47.740Z,26.23
2022-12-23T10:57:17.278Z,23.13
2022-12-23T10:59:44.151Z,26.13
2022-12-23T11:02:13.879Z,27.90
2022-12-23T11:04:49.094Z,25.02
2022-12-23T11:10:17.977Z,23.88
2022-12-23T11:12:50.719Z,23.48
2022-12-23T11:15:28.354Z,28.30
2022-12-23T11:18:12.207Z,26.67
2022-12-23T11:20:41.547Z,26.73
2022-12-23T11:23:31.755Z,22.33
2022-12-23T11:26:07.517Z,24.38
2022-12-23T11:28:37.580Z,24.02
2022-12-23T11:31:11.613Z,22.98
2022-12-23T11:33:51.996Z,24.00
2022-12-23T11:36:23.983Z,22.90
2022-12-23T11:39:04.919Z,22.33
2022-12-23T11:41:37.857Z,21.42
2022-12-23T11:44:11.687Z,22.35
2022-12-23T11:46:38.386Z,19.65
2022-12-23T11:49:24.199Z,20.58
2022-12-23T11:52:01.816Z,20.35
2022-12-23T11:54:29.118Z,20.60
2022-12-23T11:56:56.151Z,22.33
2022-12-23T11:59:40.568Z,23.35
2022-12-23T12:02:20.577Z,20.55
2022-12-23T12:05:26.358Z,20.35
2022-12-23T12:07:56.732Z,23.80
2022-12-23T12:10:27.924Z,20.17
2022-12-23T12:13:02.336Z,20.42
2022-12-23T12:15:44.011Z,20.58
2022-12-23T12:18:15.504Z,23.17
2022-12-23T12:20:53.168Z,22.58
2022-12-23T12:23:35.169Z,20.58
2022-12-23T12:28:42.218Z,19.02
2022-12-23T12:31:23.331Z,20.88
2022-12-23T12:33:55.911Z,17.52
2022-12-23T12:36:37.654Z,17.20
2022-12-23T12:39:04.236Z,16.33
2022-12-23T12:41:37.128Z,20.30
2022-12-23T12:44:15.801Z,19.67
2022-12-23T12:47:28.518Z,19.15
2022-12-23T12:50:06.200Z,21.75
2022-12-23T12:52:39.147Z,20.90
2022-12-23T12:55:31.652Z,22.52
2022-12-23T12:57:58.321Z,21.35
2022-12-23T13:00:25.216Z,19.52
2022-12-23T13:03:09.956Z,21.35
2022-12-23T13:06:11.852Z,21.30
2022-12-23T13:08:51.439Z,20.88
2022-12-23T13:11:24.931Z,20.58
2022-12-23T13:13:54.796Z,28.17
2022-12-23T13:16:44.246Z,19.20
2022-12-23T13:19:51.094Z,17.50
2022-12-23T13:22:25.002Z,17.98
2022-12-23T13:25:15.358Z,19.20
2022-12-23T13:27:57.687Z,19.38
2022-12-23T13:30:28.269Z,17.27
2022-12-23T13:33:16.578Z,16.33
2022-12-23T13:36:17.286Z,18.58
2022-12-23T13:39:16.633Z,16.23
2022-12-23T13:41:51.183Z,17.85
2022-12-23T13:44:18.810Z,15.88
2022-12-23T13:47:11.866Z,19.67
2022-12-23T13:49:41.303Z,20.02
2022-12-23T13:52:26.663Z,19.33
2022-12-23T13:55:08.374Z,16.63
2022-12-23T13:57:56.732Z,17.23
2022-12-23T14:00:34.399Z,13.20
2022-12-23T14:03:00.954Z,14.70
2022-12-23T14:05:50.789Z,14.45
2022-12-23T14:08:20.291Z,13.23
2022-12-23T14:11:14.509Z,12.27
2022-12-23T14:13:46.249Z,12.57
2022-12-23T14:16:21.516Z,12.77
2022-12-23T14:18:55.394Z,13.88
2022-12-23T14:21:59.307Z,14.15
2022-12-23T14:25:10.065Z,12.30
2022-12-23T14:27:54.671Z,12.30
2022-12-23T14:30:35.714Z,12.07
2022-12-23T14:33:33.821Z,10.65
2022-12-23T14:36:22.529Z,11.45
2022-12-23T14:39:14.099Z,10.68
2022-12-23T14:41:52.818Z,9.82
2022-12-23T14:44:26.402Z,9.30
2022-12-23T14:46:54.618Z,8.77
2022-12-23T14:49:40.364Z,9.20
2022-12-23T14:52:46.220Z,9.05
2022-12-23T14:55:33.116Z,9.35
2022-12-23T14:58:07.792Z,9.55
2022-12-23T15:00:46.267Z,10.23
2022-12-23T15:03:13.017Z,9.77
2022-12-23T15:05:40.724Z,10.35
2022-12-23T15:08:28.897Z,14.18
2022-12-23T15:10:56.723Z,11.25
2022-12-23T15:13:25.487Z,13.50
2022-12-23T15:16:00.611Z,14.68
2022-12-23T15:18:28.468Z,19.25
2022-12-23T15:21:03.956Z,14.77
2022-12-23T15:23:30.445Z,14.98
2022-12-23T15:26:00.259Z,14.77
2022-12-23T15:28:44.843Z,14.60
2022-12-23T15:31:35.790Z,13.00
2022-12-23T15:34:13.327Z,13.25
2022-12-23T15:36:44.459Z,17.53
2022-12-23T15:39:19.731Z,17.90
2022-12-23T15:41:47.805Z,18.20
2022-12-23T15:44:20.557Z,20.25
2022-12-23T15:46:49.031Z,18.25
2022-12-23T15:49:16.525Z,16.80
2022-12-23T15:54:36.810Z,18.60
2022-12-23T15:57:04.499Z,19.27
2022-12-23T15:59:38.630Z,21.25
2022-12-23T16:05:13.357Z,21.98
2022-12-23T16:07:42.029Z,20.30
2022-12-23T16:10:14.109Z,21.10
2022-12-23T16:12:41.835Z,21.13
2022-12-23T16:15:28.715Z,21.27
2022-12-23T16:18:25.670Z,20.50
2022-12-23T16:20:56.375Z,19.58
2022-12-23T16:23:24.532Z,20.50
2022-12-23T16:25:52.787Z,19.83
2022-12-23T16:28:24.356Z,21.75
2022-12-23T16:30:57.377Z,15.82
2022-12-23T16:33:38.522Z,22.58
2022-12-23T16:36:26.413Z,15.63
2022-12-23T16:39:00.284Z,16.88
2022-12-23T16:41:26.796Z,19.73
2022-12-23T16:43:53.356Z,14.48
2022-12-23T16:46:22.065Z,19.67
2022-12-23T16:48:55.421Z,20.92
2022-12-23T16:51:23.328Z,20.23
2022-12-23T16:53:51.500Z,20.75
2022-12-23T16:56:20.848Z,19.55
2022-12-23T16:58:47.607Z,23.60
2022-12-23T17:01:16.649Z,21.25
2022-12-23T17:03:43.218Z,24.58
2022-12-23T17:06:14.267Z,26.05
2022-12-23T17:08:41.399Z,21.92
2022-12-23T17:11:14.137Z,26.40
2022-12-23T17:13:40.676Z,26.63
2022-12-23T17:16:16.544Z,23.67
2022-12-23T17:18:43.070Z,26.80
2022-12-23T17:21:21.404Z,22.77
2022-12-23T17:23:48.945Z,24.27
2022-12-23T17:26:15.452Z,27.55
2022-12-23T17:28:42.050Z,20.17
2022-12-23T17:31:13.937Z,25.17
2022-12-23T17:33:41.784Z,23.77
2022-12-23T17:36:11.000Z,27.27
2022-12-23T17:38:37.715Z,30.88
2022-12-23T17:41:04.607Z,29.70
2022-12-23T17:43:31.253Z,30.08
2022-12-23T17:45:57.958Z,35.92
2022-12-23T17:48:29.741Z,32.80
2022-12-23T17:50:58.209Z,31.10
2022-12-23T17:53:24.734Z,32.08
2022-12-23T17:55:51.325Z,31.58
2022-12-23T17:58:17.855Z,27.92
2022-12-23T18:00:44.464Z,33.60
2022-12-23T18:03:23.113Z,28.23
2022-12-23T18:05:54.259Z,31.75
2022-12-23T18:08:23.865Z,29.77
2022-12-23T18:10:50.454Z,30.65
2022-12-23T18:13:19.129Z,27.05
2022-12-23T18:15:46.003Z,32.65
2022-12-23T18:18:28.588Z,24.35
2022-12-23T18:20:59.803Z,30.90
2022-12-23T18:23:29.267Z,29.98
2022-12-23T18:25:56.799Z,35.33
2022-12-23T18:28:24.298Z,35.67
2022-12-23T18:30:52.764Z,30.20
2022-12-23T18:33:19.584Z,35.70
2022-12-23T18:35:48.367Z,28.30
2022-12-23T18:38:16.803Z,32.05
2022-12-23T18:40:43.963Z,32.00
2022-12-23T18:43:24.607Z,39.17
2022-12-23T18:45:53.573Z,29.02
2022-12-23T18:48:21.265Z,33.25
2022-12-23T18:50:47.967Z,31.45
2022-12-23T18:53:23.497Z,29.75
2022-12-23T18:55:51.852Z,30.13
2022-12-23T18:58:18.681Z,34.35
2022-12-23T19:00:46.231Z,28.30
2022-12-23T19:03:24.966Z,28.17
2022-12-23T19:05:53.317Z,27.58
2022-12-23T19:08:26.357Z,32.13
2022-12-23T19:10:54.760Z,21.65
2022-12-23T19:13:21.689Z,28.95
2022-12-23T19:15:48.256Z,27.33
2022-12-23T19:18:17.297Z,28.00
2022-12-23T19:20:45.318Z,24.60
2022-12-23T19:23:12.691Z,26.45
2022-12-23T19:25:47.783Z,29.58
2022-12-23T19:30:48.607Z,27.27
2022-12-23T19:33:15.315Z,25.58
2022-12-23T19:35:42.290Z,24.05
2022-12-23T19:38:09.563Z,23.83
2022-12-23T19:40:36.133Z,26.80
2022-12-23T19:43:02.930Z,27.10
2022-12-23T19:45:29.469Z,27.05
2022-12-23T19:47:56.070Z,22.90
2022-12-23T19:50:22.611Z,19.55
2022-12-23T19:52:50.660Z,27.52
2022-12-23T19:55:17.307Z,22.60
2022-12-23T19:57:43.877Z,27.70
2022-12-23T20:00:11.061Z,20.02
2022-12-23T20:02:40.286Z,25.05
2022-12-23T20:05:07.319Z,26.77
2022-12-23T20:07:35.648Z,22.90
2022-12-23T20:10:02.547Z,24.73
2022-12-23T20:12:29.132Z,27.70
2022-12-23T20:14:55.736Z,27.25
2022-12-23T20:17:22.276Z,25.38
2022-12-23T20:19:48.789Z,28.50
2022-12-23T20:22:15.361Z,23.98
2022-12-23T20:24:41.860Z,23.15
2022-12-23T20:27:11.728Z,23.55
2022-12-23T20:29:39.848Z,23.27
2022-12-23T20:32:06.476Z,22.08
2022-12-23T20:34:38.696Z,19.35
2022-12-23T20:37:06.198Z,22.80
2022-12-23T20:39:32.776Z,25.65
2022-12-23T20:41:59.364Z,26.08
2022-12-23T20:44:35.137Z,23.38
2022-12-23T20:47:02.835Z,25.08
2022-12-23T20:49:29.603Z,24.73
2022-12-23T20:51:56.172Z,21.17
2022-12-23T20:54:27.972Z,20.50
2022-12-23T20:56:58.544Z,18.60
2022-12-23T20:59:25.296Z,19.30
2022-12-23T21:01:51.841Z,22.75
2022-12-23T21:04:18.752Z,23.27
2022-12-23T21:06:45.324Z,18.35
2022-12-23T21:09:14.531Z,21.00
2022-12-23T21:11:43.479Z,20.88
2022-12-23T21:14:10.889Z,21.60
2022-12-23T21:16:38.772Z,12.82
2022-12-23T21:19:13.129Z,17.45
2022-12-23T21:21:39.690Z,19.48
2022-12-23T21:24:06.488Z,18.27
2022-12-23T21:26:34.107Z,19.10
2022-12-23T21:29:03.721Z,18.25
2022-12-23T21:31:32.407Z,14.60
2022-12-23T21:33:59.059Z,16.33
2022-12-23T21:36:32.197Z,16.02
2022-12-23T21:38:59.706Z,17.58
2022-12-23T21:41:31.763Z,16.40
2022-12-23T21:44:00.016Z,17.95
2022-12-23T21:46:27.980Z,16.55
2022-12-23T21:48:56.184Z,16.58
2022-12-23T21:51:39.090Z,17.00
2022-12-23T21:54:08.117Z,18.20
2022-12-23T21:56:35.091Z,16.20
2022-12-23T21:59:11.426Z,13.63
2022-12-23T22:01:38.366Z,15.80
2022-12-23T22:04:05.300Z,16.08
2022-12-23T22:06:36.596Z,19.45
2022-12-23T22:09:07.207Z,18.13
2022-12-23T22:11:35.869Z,17.75
2022-12-23T22:14:04.505Z,18.92
2022-12-23T22:16:31.565Z,18.92
2022-12-23T22:18:59.737Z,20.08
2022-12-23T22:21:28.652Z,19.98
2022-12-23T22:23:56.322Z,20.05
2022-12-23T22:26:28.843Z,20.10
2022-12-23T22:28:57.442Z,22.23
2022-12-23T22:31:29.686Z,23.92
2022-12-23T22:33:56.316Z,22.60
2022-12-23T22:36:23.012Z,21.35
2022-12-23T22:38:55.023Z,22.10
2022-12-23T22:41:22.397Z,25.42
2022-12-23T22:43:49.073Z,26.63
2022-12-23T22:46:15.771Z,23.75
2022-12-23T22:48:42.614Z,25.33
2022-12-23T22:51:14.393Z,22.08
2022-12-23T22:53:41.176Z,21.45
2022-12-23T22:56:08.227Z,23.20
2022-12-23T22:58:34.765Z,22.73
2022-12-23T23:01:01.657Z,30.38
2022-12-23T23:03:28.651Z,22.65
2022-12-23T23:06:12.996Z,17.38
2022-12-23T23:08:42.174Z,19.58
2022-12-23T23:11:08.765Z,24.25
2022-12-23T23:13:35.567Z,19.05
2022-12-23T23:16:02.576Z,19.73
2022-12-23T23:18:30.132Z,22.02
2022-12-23T23:20:56.748Z,24.42
2022-12-23T23:23:23.311Z,23.02
2022-12-23T23:25:49.848Z,19.55
2022-12-23T23:28:16.473Z,22.42
2022-12-23T23:30:43.084Z,23.58
2022-12-23T23:33:10.703Z,25.08
2022-12-23T23:35:37.291Z,19.30
2022-12-23T23:38:03.919Z,22.00
2022-12-23T23:40:30.462Z,24.40
2022-12-23T23:42:56.954Z,27.98
2022-12-23T23:45:23.475Z,23.08
2022-12-23T23:47:50.052Z,26.23
2022-12-23T23:50:16.683Z,24.85
2022-12-23T23:52:43.229Z,25.85
2022-12-23T23:55:10.169Z,28.63
2022-12-23T23:57:36.692Z,26.27
